sensor_id;sensor_type;location;lat;lon;timestamp;P1;durP1;ratioP1;P2;durP2;ratioP2
21192;SDS011;10754;51.106;7.164;2023-12-04T00:00:46;9.67;;;8.67;;
21192;SDS011;10754;51.106;7.164;2023-12-04T00:03:12;9.17;;;8.17;;
21192;SDS011;10754;51.106;7.164;2023-12-04T00:05:37;9.23;;;8.33;;
21192;SDS011;10754;51.106;7.164;2023-12-04T00:08:03;10.00;;;8.80;;
21192;SDS011;10754;51.106;7.164;2023-12-04T00:10:28;9.80;;;7.97;;
21192;SDS011;10754;51.106;7.164;2023-12-04T00:12:54;9.20;;;7.90;;
21192;SDS011;10754;51.106;7.164;2023-12-04T00:15:19;8.50;;;7.57;;
21192;SDS011;10754;51.106;7.164;2023-12-04T00:17:46;8.87;;;7.97;;
21192;SDS011;10754;51.106;7.164;2023-12-04T00:20:12;8.20;;;7.40;;
21192;SDS011;10754;51.106;7.164;2023-12-04T00:22:37;8.97;;;8.17;;
21192;SDS011;10754;51.106;7.164;2023-12-04T00:25:03;9.90;;;8.73;;
21192;SDS011;10754;51.106;7.164;2023-12-04T00:27:29;8.93;;;8.03;;
21192;SDS011;10754;51.106;7.164;2023-12-04T00:29:55;8.07;;;7.27;;
21192;SDS011;10754;51.106;7.164;2023-12-04T00:32:21;8.60;;;7.70;;
21192;SDS011;10754;51.106;7.164;2023-12-04T00:34:46;8.93;;;7.73;;
21192;SDS011;10754;51.106;7.164;2023-12-04T00:37:12;8.20;;;7.40;;
21192;SDS011;10754;51.106;7.164;2023-12-04T00:39:37;9.67;;;7.67;;
21192;SDS011;10754;51.106;7.164;2023-12-04T00:42:03;8.60;;;7.70;;
21192;SDS011;10754;51.106;7.164;2023-12-04T00:44:29;8.30;;;7.50;;
21192;SDS011;10754;51.106;7.164;2023-12-04T00:46:54;8.13;;;7.30;;
21192;SDS011;10754;51.106;7.164;2023-12-04T00:49:20;8.57;;;7.63;;
21192;SDS011;10754;51.106;7.164;2023-12-04T00:51:45;7.93;;;7.23;;
21192;SDS011;10754;51.106;7.164;2023-12-04T00:54:11;7.43;;;6.73;;
21192;SDS011;10754;51.106;7.164;2023-12-04T00:56:40;8.60;;;7.70;;
21192;SDS011;10754;51.106;7.164;2023-12-04T00:59:09;8.30;;;7.13;;
21192;SDS011;10754;51.106;7.164;2023-12-04T01:01:37;8.23;;;7.40;;
21192;SDS011;10754;51.106;7.164;2023-12-04T01:04:03;7.60;;;6.80;;
21192;SDS011;10754;51.106;7.164;2023-12-04T01:06:29;7.97;;;7.17;;
21192;SDS011;10754;51.106;7.164;2023-12-04T01:08:55;7.93;;;7.10;;
21192;SDS011;10754;51.106;7.164;2023-12-04T01:11:21;7.80;;;7.07;;
21192;SDS011;10754;51.106;7.164;2023-12-04T01:13:47;7.77;;;7.07;;
21192;SDS011;10754;51.106;7.164;2023-12-04T01:16:13;7.80;;;7.00;;
21192;SDS011;10754;51.106;7.164;2023-12-04T01:18:39;7.90;;;7.10;;
21192;SDS011;10754;51.106;7.164;2023-12-04T01:21:05;8.13;;;7.00;;
21192;SDS011;10754;51.106;7.164;2023-12-04T01:23:31;7.37;;;6.67;;
21192;SDS011;10754;51.106;7.164;2023-12-04T01:25:56;9.63;;;7.67;;
21192;SDS011;10754;51.106;7.164;2023-12-04T01:28:22;8.00;;;7.30;;
21192;SDS011;10754;51.106;7.164;2023-12-04T01:30:48;7.90;;;7.10;;
21192;SDS011;10754;51.106;7.164;2023-12-04T01:33:13;8.77;;;7.07;;
21192;SDS011;10754;51.106;7.164;2023-12-04T01:35:39;7.80;;;7.00;;
21192;SDS011;10754;51.106;7.164;2023-12-04T01:38:04;8.13;;;7.33;;
21192;SDS011;10754;51.106;7.164;2023-12-04T01:40:30;7.90;;;6.77;;
21192;SDS011;10754;51.106;7.164;2023-12-04T01:42:55;7.37;;;6.57;;
21192;SDS011;10754;51.106;7.164;2023-12-04T01:45:21;7.73;;;6.93;;
21192;SDS011;10754;51.106;7.164;2023-12-04T01:47:46;7.27;;;6.50;;
21192;SDS011;10754;51.106;7.164;2023-12-04T01:50:12;7.60;;;6.80;;
21192;SDS011;10754;51.106;7.164;2023-12-04T01:52:39;7.07;;;6.37;;
21192;SDS011;10754;51.106;7.164;2023-12-04T01:55:05;7.07;;;6.37;;
21192;SDS011;10754;51.106;7.164;2023-12-04T01:57:33;7.30;;;6.60;;
21192;SDS011;10754;51.106;7.164;2023-12-04T01:59:59;11.17;;;6.73;;
21192;SDS011;10754;51.106;7.164;2023-12-04T02:02:25;7.73;;;6.23;;
21192;SDS011;10754;51.106;7.164;2023-12-04T02:04:54;7.60;;;6.83;;
21192;SDS011;10754;51.106;7.164;2023-12-04T02:07:21;7.87;;;6.77;;
21192;SDS011;10754;51.106;7.164;2023-12-04T02:09:47;7.37;;;6.67;;
21192;SDS011;10754;51.106;7.164;2023-12-04T02:12:13;7.50;;;6.70;;
21192;SDS011;10754;51.106;7.164;2023-12-04T02:14:39;7.27;;;6.57;;
21192;SDS011;10754;51.106;7.164;2023-12-04T02:17:05;8.10;;;7.30;;
21192;SDS011;10754;51.106;7.164;2023-12-04T02:19:32;7.60;;;6.80;;
21192;SDS011;10754;51.106;7.164;2023-12-04T02:21:57;7.87;;;7.07;;
21192;SDS011;10754;51.106;7.164;2023-12-04T02:24:23;7.60;;;6.90;;
21192;SDS011;10754;51.106;7.164;2023-12-04T02:26:58;8.23;;;7.17;;
21192;SDS011;10754;51.106;7.164;2023-12-04T02:29:47;8.63;;;6.97;;
21192;SDS011;10754;51.106;7.164;2023-12-04T02:32:17;7.33;;;6.63;;
21192;SDS011;10754;51.106;7.164;2023-12-04T02:34:44;8.90;;;6.67;;
21192;SDS011;10754;51.106;7.164;2023-12-04T02:37:12;7.70;;;6.57;;
21192;SDS011;10754;51.106;7.164;2023-12-04T02:39:39;7.30;;;6.63;;
21192;SDS011;10754;51.106;7.164;2023-12-04T02:42:05;7.40;;;6.53;;
21192;SDS011;10754;51.106;7.164;2023-12-04T02:44:31;7.10;;;6.40;;
21192;SDS011;10754;51.106;7.164;2023-12-04T02:46:57;6.97;;;6.27;;
21192;SDS011;10754;51.106;7.164;2023-12-04T02:49:22;6.93;;;6.30;;
21192;SDS011;10754;51.106;7.164;2023-12-04T02:51:48;7.13;;;6.43;;
21192;SDS011;10754;51.106;7.164;2023-12-04T02:54:13;6.90;;;6.20;;
21192;SDS011;10754;51.106;7.164;2023-12-04T02:56:39;6.90;;;6.20;;
21192;SDS011;10754;51.106;7.164;2023-12-04T02:59:04;6.33;;;5.73;;
21192;SDS011;10754;51.106;7.164;2023-12-04T03:01:30;7.43;;;6.73;;
21192;SDS011;10754;51.106;7.164;2023-12-04T03:03:55;7.53;;;6.70;;
21192;SDS011;10754;51.106;7.164;2023-12-04T03:06:21;6.67;;;5.97;;
21192;SDS011;10754;51.106;7.164;2023-12-04T03:08:47;6.27;;;5.77;;
21192;SDS011;10754;51.106;7.164;2023-12-04T03:11:12;7.07;;;6.37;;
21192;SDS011;10754;51.106;7.164;2023-12-04T03:13:38;6.47;;;5.87;;
21192;SDS011;10754;51.106;7.164;2023-12-04T03:16:03;6.23;;;5.63;;
21192;SDS011;10754;51.106;7.164;2023-12-04T03:18:29;6.30;;;5.70;;
21192;SDS011;10754;51.106;7.164;2023-12-04T03:20:55;6.97;;;6.27;;
21192;SDS011;10754;51.106;7.164;2023-12-04T03:23:20;7.53;;;6.83;;
21192;SDS011;10754;51.106;7.164;2023-12-04T03:25:46;6.90;;;6.30;;
21192;SDS011;10754;51.106;7.164;2023-12-04T03:28:11;6.23;;;5.63;;
21192;SDS011;10754;51.106;7.164;2023-12-04T03:30:38;6.57;;;5.97;;
21192;SDS011;10754;51.106;7.164;2023-12-04T03:33:03;6.20;;;5.60;;
21192;SDS011;10754;51.106;7.164;2023-12-04T03:35:29;5.97;;;5.47;;
21192;SDS011;10754;51.106;7.164;2023-12-04T03:37:54;7.13;;;6.43;;
21192;SDS011;10754;51.106;7.164;2023-12-04T03:40:20;7.17;;;6.47;;
21192;SDS011;10754;51.106;7.164;2023-12-04T03:42:45;5.87;;;5.27;;
21192;SDS011;10754;51.106;7.164;2023-12-04T03:45:11;6.20;;;5.60;;
21192;SDS011;10754;51.106;7.164;2023-12-04T03:47:36;6.30;;;5.70;;
21192;SDS011;10754;51.106;7.164;2023-12-04T03:50:02;6.93;;;6.23;;
21192;SDS011;10754;51.106;7.164;2023-12-04T03:52:28;6.17;;;5.57;;
21192;SDS011;10754;51.106;7.164;2023-12-04T03:54:53;7.20;;;6.13;;
21192;SDS011;10754;51.106;7.164;2023-12-04T03:57:18;7.37;;;6.47;;
21192;SDS011;10754;51.106;7.164;2023-12-04T03:59:44;7.60;;;5.93;;
21192;SDS011;10754;51.106;7.164;2023-12-04T04:02:10;6.57;;;5.90;;
21192;SDS011;10754;51.106;7.164;2023-12-04T04:04:35;6.20;;;5.60;;
21192;SDS011;10754;51.106;7.164;2023-12-04T04:07:01;6.93;;;6.23;;
21192;SDS011;10754;51.106;7.164;2023-12-04T04:09:26;7.53;;;6.80;;
21192;SDS011;10754;51.106;7.164;2023-12-04T04:11:52;6.13;;;5.53;;
21192;SDS011;10754;51.106;7.164;2023-12-04T04:14:17;6.30;;;5.70;;
21192;SDS011;10754;51.106;7.164;2023-12-04T04:16:43;7.10;;;6.40;;
21192;SDS011;10754;51.106;7.164;2023-12-04T04:19:08;6.30;;;5.70;;
21192;SDS011;10754;51.106;7.164;2023-12-04T04:21:34;6.53;;;5.90;;
21192;SDS011;10754;51.106;7.164;2023-12-04T04:23:59;6.60;;;6.00;;
21192;SDS011;10754;51.106;7.164;2023-12-04T04:26:25;6.73;;;5.90;;
21192;SDS011;10754;51.106;7.164;2023-12-04T04:28:51;6.90;;;6.20;;
21192;SDS011;10754;51.106;7.164;2023-12-04T04:31:16;7.03;;;6.10;;
21192;SDS011;10754;51.106;7.164;2023-12-04T04:33:42;7.10;;;6.40;;
21192;SDS011;10754;51.106;7.164;2023-12-04T04:36:11;7.17;;;6.43;;
21192;SDS011;10754;51.106;7.164;2023-12-04T04:38:36;7.37;;;6.40;;
21192;SDS011;10754;51.106;7.164;2023-12-04T04:41:03;7.10;;;6.40;;
21192;SDS011;10754;51.106;7.164;2023-12-04T04:43:29;6.80;;;6.10;;
21192;SDS011;10754;51.106;7.164;2023-12-04T04:45:54;7.47;;;6.77;;
21192;SDS011;10754;51.106;7.164;2023-12-04T04:48:20;7.97;;;6.87;;
21192;SDS011;10754;51.106;7.164;2023-12-04T04:50:46;7.13;;;6.43;;
21192;SDS011;10754;51.106;7.164;2023-12-04T04:53:11;7.17;;;6.47;;
21192;SDS011;10754;51.106;7.164;2023-12-04T04:55:36;8.17;;;6.73;;
21192;SDS011;10754;51.106;7.164;2023-12-04T04:58:02;7.53;;;6.60;;
21192;SDS011;10754;51.106;7.164;2023-12-04T05:00:27;7.30;;;6.60;;
21192;SDS011;10754;51.106;7.164;2023-12-04T05:02:53;7.40;;;6.70;;
21192;SDS011;10754;51.106;7.164;2023-12-04T05:05:18;7.57;;;6.73;;
21192;SDS011;10754;51.106;7.164;2023-12-04T05:07:44;8.00;;;7.00;;
21192;SDS011;10754;51.106;7.164;2023-12-04T05:10:09;6.70;;;6.00;;
21192;SDS011;10754;51.106;7.164;2023-12-04T05:12:35;7.93;;;7.13;;
21192;SDS011;10754;51.106;7.164;2023-12-04T05:15:00;7.50;;;6.80;;
21192;SDS011;10754;51.106;7.164;2023-12-04T05:17:26;7.80;;;6.97;;
21192;SDS011;10754;51.106;7.164;2023-12-04T05:19:51;7.60;;;6.83;;
21192;SDS011;10754;51.106;7.164;2023-12-04T05:22:17;7.20;;;6.50;;
21192;SDS011;10754;51.106;7.164;2023-12-04T05:24:42;7.20;;;6.50;;
21192;SDS011;10754;51.106;7.164;2023-12-04T05:27:08;7.30;;;6.60;;
21192;SDS011;10754;51.106;7.164;2023-12-04T05:29:33;7.30;;;6.60;;
21192;SDS011;10754;51.106;7.164;2023-12-04T05:31:59;8.10;;;7.30;;
21192;SDS011;10754;51.106;7.164;2023-12-04T05:34:24;7.10;;;6.40;;
21192;SDS011;10754;51.106;7.164;2023-12-04T05:36:50;7.93;;;7.13;;
21192;SDS011;10754;51.106;7.164;2023-12-04T05:39:15;7.73;;;6.93;;
21192;SDS011;10754;51.106;7.164;2023-12-04T05:41:41;7.90;;;7.10;;
21192;SDS011;10754;51.106;7.164;2023-12-04T05:44:06;8.80;;;8.00;;
21192;SDS011;10754;51.106;7.164;2023-12-04T05:46:32;7.47;;;6.53;;
21192;SDS011;10754;51.106;7.164;2023-12-04T05:48:57;7.27;;;6.57;;
21192;SDS011;10754;51.106;7.164;2023-12-04T05:51:23;8.23;;;7.43;;
21192;SDS011;10754;51.106;7.164;2023-12-04T05:53:49;7.40;;;6.70;;
21192;SDS011;10754;51.106;7.164;2023-12-04T05:56:14;7.83;;;7.03;;
21192;SDS011;10754;51.106;7.164;2023-12-04T05:58:40;8.03;;;7.23;;
21192;SDS011;10754;51.106;7.164;2023-12-04T06:01:05;8.07;;;7.23;;
21192;SDS011;10754;51.106;7.164;2023-12-04T06:03:31;7.93;;;7.13;;
21192;SDS011;10754;51.106;7.164;2023-12-04T06:05:57;7.57;;;6.77;;
21192;SDS011;10754;51.106;7.164;2023-12-04T06:08:23;7.93;;;7.23;;
21192;SDS011;10754;51.106;7.164;2023-12-04T06:10:48;8.10;;;6.33;;
21192;SDS011;10754;51.106;7.164;2023-12-04T06:13:14;7.77;;;6.93;;
21192;SDS011;10754;51.106;7.164;2023-12-04T06:15:39;8.47;;;7.63;;
21192;SDS011;10754;51.106;7.164;2023-12-04T06:18:05;8.30;;;7.47;;
21192;SDS011;10754;51.106;7.164;2023-12-04T06:20:30;7.20;;;6.50;;
21192;SDS011;10754;51.106;7.164;2023-12-04T06:22:56;7.93;;;6.83;;
21192;SDS011;10754;51.106;7.164;2023-12-04T06:25:21;7.90;;;6.83;;
21192;SDS011;10754;51.106;7.164;2023-12-04T06:27:47;7.53;;;6.73;;
21192;SDS011;10754;51.106;7.164;2023-12-04T06:30:13;7.00;;;6.30;;
21192;SDS011;10754;51.106;7.164;2023-12-04T06:32:39;7.27;;;6.53;;
21192;SDS011;10754;51.106;7.164;2023-12-04T06:35:05;7.33;;;6.63;;
21192;SDS011;10754;51.106;7.164;2023-12-04T06:37:31;7.30;;;6.60;;
21192;SDS011;10754;51.106;7.164;2023-12-04T06:39:58;6.83;;;6.13;;
21192;SDS011;10754;51.106;7.164;2023-12-04T06:42:25;6.67;;;6.07;;
21192;SDS011;10754;51.106;7.164;2023-12-04T06:44:51;7.07;;;6.30;;
21192;SDS011;10754;51.106;7.164;2023-12-04T06:47:17;7.50;;;6.70;;
21192;SDS011;10754;51.106;7.164;2023-12-04T06:49:46;7.33;;;6.63;;
21192;SDS011;10754;51.106;7.164;2023-12-04T06:52:11;7.70;;;6.90;;
21192;SDS011;10754;51.106;7.164;2023-12-04T06:54:37;6.97;;;6.27;;
21192;SDS011;10754;51.106;7.164;2023-12-04T06:57:02;8.57;;;7.30;;
21192;SDS011;10754;51.106;7.164;2023-12-04T06:59:28;7.17;;;6.43;;
21192;SDS011;10754;51.106;7.164;2023-12-04T07:01:53;6.90;;;6.30;;
21192;SDS011;10754;51.106;7.164;2023-12-04T07:04:19;7.17;;;6.47;;
21192;SDS011;10754;51.106;7.164;2023-12-04T07:06:46;7.20;;;6.50;;
21192;SDS011;10754;51.106;7.164;2023-12-04T07:09:13;7.07;;;6.37;;
21192;SDS011;10754;51.106;7.164;2023-12-04T07:11:38;7.23;;;6.53;;
21192;SDS011;10754;51.106;7.164;2023-12-04T07:14:04;6.70;;;6.10;;
21192;SDS011;10754;51.106;7.164;2023-12-04T07:16:30;6.87;;;6.17;;
21192;SDS011;10754;51.106;7.164;2023-12-04T07:18:56;6.87;;;6.20;;
21192;SDS011;10754;51.106;7.164;2023-12-04T07:21:21;6.70;;;6.10;;
21192;SDS011;10754;51.106;7.164;2023-12-04T07:23:47;7.00;;;5.80;;
21192;SDS011;10754;51.106;7.164;2023-12-04T07:26:12;6.30;;;5.70;;
21192;SDS011;10754;51.106;7.164;2023-12-04T07:28:38;6.77;;;6.07;;
21192;SDS011;10754;51.106;7.164;2023-12-04T07:31:03;5.73;;;5.20;;
21192;SDS011;10754;51.106;7.164;2023-12-04T07:33:29;6.30;;;5.70;;
21192;SDS011;10754;51.106;7.164;2023-12-04T07:35:55;5.83;;;5.23;;
21192;SDS011;10754;51.106;7.164;2023-12-04T07:38:20;6.47;;;5.77;;
21192;SDS011;10754;51.106;7.164;2023-12-04T07:40:46;6.30;;;5.70;;
21192;SDS011;10754;51.106;7.164;2023-12-04T07:43:12;6.20;;;5.60;;
21192;SDS011;10754;51.106;7.164;2023-12-04T07:45:39;6.67;;;6.07;;
21192;SDS011;10754;51.106;7.164;2023-12-04T07:48:06;6.13;;;5.50;;
21192;SDS011;10754;51.106;7.164;2023-12-04T07:50:31;5.67;;;5.17;;
21192;SDS011;10754;51.106;7.164;2023-12-04T07:52:57;6.00;;;5.43;;
21192;SDS011;10754;51.106;7.164;2023-12-04T07:55:22;5.90;;;5.30;;
21192;SDS011;10754;51.106;7.164;2023-12-04T07:57:48;5.63;;;5.13;;
21192;SDS011;10754;51.106;7.164;2023-12-04T08:00:15;5.60;;;5.00;;
21192;SDS011;10754;51.106;7.164;2023-12-04T08:02:42;5.17;;;4.67;;
21192;SDS011;10754;51.106;7.164;2023-12-04T08:05:09;6.03;;;5.03;;
21192;SDS011;10754;51.106;7.164;2023-12-04T08:07:35;6.57;;;4.80;;
21192;SDS011;10754;51.106;7.164;2023-12-04T08:10:00;4.80;;;4.40;;
21192;SDS011;10754;51.106;7.164;2023-12-04T08:12:26;5.83;;;4.87;;
21192;SDS011;10754;51.106;7.164;2023-12-04T08:14:52;5.37;;;4.87;;
21192;SDS011;10754;51.106;7.164;2023-12-04T08:17:17;5.83;;;5.23;;
21192;SDS011;10754;51.106;7.164;2023-12-04T08:19:44;5.20;;;4.70;;
21192;SDS011;10754;51.106;7.164;2023-12-04T08:22:09;4.63;;;4.10;;
21192;SDS011;10754;51.106;7.164;2023-12-04T08:24:35;5.63;;;5.13;;
21192;SDS011;10754;51.106;7.164;2023-12-04T08:27:00;5.03;;;4.47;;
21192;SDS011;10754;51.106;7.164;2023-12-04T08:29:26;4.77;;;4.37;;
21192;SDS011;10754;51.106;7.164;2023-12-04T08:31:51;5.63;;;4.67;;
21192;SDS011;10754;51.106;7.164;2023-12-04T08:34:17;4.70;;;4.20;;
21192;SDS011;10754;51.106;7.164;2023-12-04T08:36:42;5.20;;;4.70;;
21192;SDS011;10754;51.106;7.164;2023-12-04T08:39:08;5.00;;;4.47;;
21192;SDS011;10754;51.106;7.164;2023-12-04T08:41:33;5.03;;;4.53;;
21192;SDS011;10754;51.106;7.164;2023-12-04T08:43:58;5.33;;;4.83;;
21192;SDS011;10754;51.106;7.164;2023-12-04T08:46:24;5.47;;;4.90;;
21192;SDS011;10754;51.106;7.164;2023-12-04T08:48:50;4.60;;;4.20;;
21192;SDS011;10754;51.106;7.164;2023-12-04T08:51:16;5.20;;;4.70;;
21192;SDS011;10754;51.106;7.164;2023-12-04T08:53:42;5.50;;;4.80;;
21192;SDS011;10754;51.106;7.164;2023-12-04T08:56:08;6.10;;;5.50;;
21192;SDS011;10754;51.106;7.164;2023-12-04T08:58:34;5.50;;;5.00;;
21192;SDS011;10754;51.106;7.164;2023-12-04T09:00:59;5.97;;;5.37;;
21192;SDS011;10754;51.106;7.164;2023-12-04T09:03:25;5.40;;;4.90;;
21192;SDS011;10754;51.106;7.164;2023-12-04T09:05:50;5.67;;;5.10;;
21192;SDS011;10754;51.106;7.164;2023-12-04T09:08:16;5.70;;;5.20;;
21192;SDS011;10754;51.106;7.164;2023-12-04T09:10:47;6.00;;;5.50;;
21192;SDS011;10754;51.106;7.164;2023-12-04T09:13:14;4.90;;;4.50;;
21192;SDS011;10754;51.106;7.164;2023-12-04T09:15:39;5.07;;;4.60;;
21192;SDS011;10754;51.106;7.164;2023-12-04T09:18:05;4.60;;;4.20;;
21192;SDS011;10754;51.106;7.164;2023-12-04T09:20:31;5.20;;;4.70;;
21192;SDS011;10754;51.106;7.164;2023-12-04T09:22:56;5.17;;;4.37;;
21192;SDS011;10754;51.106;7.164;2023-12-04T09:25:21;5.87;;;5.27;;
21192;SDS011;10754;51.106;7.164;2023-12-04T09:27:47;5.23;;;4.73;;
21192;SDS011;10754;51.106;7.164;2023-12-04T09:30:13;5.53;;;5.00;;
21192;SDS011;10754;51.106;7.164;2023-12-04T09:32:38;5.20;;;4.63;;
21192;SDS011;10754;51.106;7.164;2023-12-04T09:35:04;4.60;;;4.20;;
21192;SDS011;10754;51.106;7.164;2023-12-04T09:37:30;5.20;;;4.27;;
21192;SDS011;10754;51.106;7.164;2023-12-04T09:39:55;4.73;;;4.33;;
21192;SDS011;10754;51.106;7.164;2023-12-04T09:42:21;4.77;;;4.30;;
21192;SDS011;10754;51.106;7.164;2023-12-04T09:44:48;4.80;;;4.40;;
21192;SDS011;10754;51.106;7.164;2023-12-04T09:47:19;4.33;;;3.93;;
21192;SDS011;10754;51.106;7.164;2023-12-04T09:49:45;4.63;;;4.23;;
21192;SDS011;10754;51.106;7.164;2023-12-04T09:52:12;5.00;;;4.50;;
21192;SDS011;10754;51.106;7.164;2023-12-04T09:54:37;5.00;;;4.60;;
21192;SDS011;10754;51.106;7.164;2023-12-04T09:57:05;4.93;;;4.33;;
21192;SDS011;10754;51.106;7.164;2023-12-04T09:59:30;5.40;;;4.73;;
21192;SDS011;10754;51.106;7.164;2023-12-04T10:01:57;4.80;;;4.37;;
21192;SDS011;10754;51.106;7.164;2023-12-04T10:04:23;4.90;;;4.40;;
21192;SDS011;10754;51.106;7.164;2023-12-04T10:06:50;4.93;;;4.43;;
21192;SDS011;10754;51.106;7.164;2023-12-04T10:09:17;4.70;;;4.20;;
21192;SDS011;10754;51.106;7.164;2023-12-04T10:11:46;5.13;;;4.47;;
21192;SDS011;10754;51.106;7.164;2023-12-04T10:14:14;5.07;;;4.57;;
21192;SDS011;10754;51.106;7.164;2023-12-04T10:16:40;4.97;;;4.43;;
21192;SDS011;10754;51.106;7.164;2023-12-04T10:19:15;5.13;;;4.63;;
21192;SDS011;10754;51.106;7.164;2023-12-04T10:21:49;4.90;;;4.50;;
21192;SDS011;10754;51.106;7.164;2023-12-04T10:24:28;5.13;;;4.63;;
21192;SDS011;10754;51.106;7.164;2023-12-04T10:26:58;4.70;;;4.30;;
21192;SDS011;10754;51.106;7.164;2023-12-04T10:29:26;5.00;;;4.50;;
21192;SDS011;10754;51.106;7.164;2023-12-04T10:31:53;5.07;;;4.67;;
21192;SDS011;10754;51.106;7.164;2023-12-04T10:34:20;4.93;;;4.50;;
21192;SDS011;10754;51.106;7.164;2023-12-04T10:36:49;4.90;;;4.50;;
21192;SDS011;10754;51.106;7.164;2023-12-04T10:39:14;5.10;;;4.60;;
21192;SDS011;10754;51.106;7.164;2023-12-04T10:41:42;5.30;;;4.50;;
21192;SDS011;10754;51.106;7.164;2023-12-04T10:44:08;5.07;;;4.57;;
21192;SDS011;10754;51.106;7.164;2023-12-04T10:46:34;4.97;;;4.40;;
21192;SDS011;10754;51.106;7.164;2023-12-04T10:49:01;5.27;;;4.60;;
21192;SDS011;10754;51.106;7.164;2023-12-04T10:51:28;4.80;;;4.30;;
21192;SDS011;10754;51.106;7.164;2023-12-04T10:53:55;5.07;;;4.57;;
21192;SDS011;10754;51.106;7.164;2023-12-04T10:56:25;5.40;;;4.90;;
21192;SDS011;10754;51.106;7.164;2023-12-04T10:58:56;5.07;;;4.57;;
21192;SDS011;10754;51.106;7.164;2023-12-04T11:01:25;5.20;;;4.70;;
21192;SDS011;10754;51.106;7.164;2023-12-04T11:03:55;4.93;;;4.43;;
21192;SDS011;10754;51.106;7.164;2023-12-04T11:06:23;5.07;;;4.57;;
21192;SDS011;10754;51.106;7.164;2023-12-04T11:08:50;4.90;;;4.50;;
21192;SDS011;10754;51.106;7.164;2023-12-04T11:11:19;5.93;;;5.33;;
21192;SDS011;10754;51.106;7.164;2023-12-04T11:13:54;4.57;;;4.17;;
21192;SDS011;10754;51.106;7.164;2023-12-04T11:16:44;6.20;;;5.40;;
21192;SDS011;10754;51.106;7.164;2023-12-04T11:19:20;5.07;;;4.57;;
21192;SDS011;10754;51.106;7.164;2023-12-04T11:21:53;5.67;;;5.17;;
21192;SDS011;10754;51.106;7.164;2023-12-04T11:24:22;5.90;;;5.10;;
21192;SDS011;10754;51.106;7.164;2023-12-04T11:26:48;7.17;;;5.40;;
21192;SDS011;10754;51.106;7.164;2023-12-04T11:29:15;6.27;;;4.67;;
21192;SDS011;10754;51.106;7.164;2023-12-04T11:31:42;5.87;;;4.93;;
21192;SDS011;10754;51.106;7.164;2023-12-04T11:34:07;6.30;;;5.70;;
21192;SDS011;10754;51.106;7.164;2023-12-04T11:36:36;5.60;;;5.00;;
21192;SDS011;10754;51.106;7.164;2023-12-04T11:39:02;5.63;;;5.10;;
21192;SDS011;10754;51.106;7.164;2023-12-04T11:41:29;5.93;;;5.33;;
21192;SDS011;10754;51.106;7.164;2023-12-04T11:43:55;6.30;;;5.37;;
21192;SDS011;10754;51.106;7.164;2023-12-04T11:46:22;6.90;;;6.10;;
21192;SDS011;10754;51.106;7.164;2023-12-04T11:48:49;6.03;;;5.43;;
21192;SDS011;10754;51.106;7.164;2023-12-04T11:51:15;6.00;;;4.87;;
21192;SDS011;10754;51.106;7.164;2023-12-04T11:54:16;6.40;;;5.80;;
21192;SDS011;10754;51.106;7.164;2023-12-04T11:59:34;5.87;;;5.30;;
21192;SDS011;10754;51.106;7.164;2023-12-04T12:02:02;6.37;;;5.27;;
21192;SDS011;10754;51.106;7.164;2023-12-04T12:04:32;6.20;;;5.60;;
21192;SDS011;10754;51.106;7.164;2023-12-04T12:06:57;6.67;;;5.97;;
21192;SDS011;10754;51.106;7.164;2023-12-04T12:09:23;6.37;;;5.03;;
21192;SDS011;10754;51.106;7.164;2023-12-04T12:11:49;5.97;;;5.47;;
21192;SDS011;10754;51.106;7.164;2023-12-04T12:14:14;6.57;;;5.97;;
21192;SDS011;10754;51.106;7.164;2023-12-04T12:16:40;5.80;;;5.20;;
21192;SDS011;10754;51.106;7.164;2023-12-04T12:19:06;6.27;;;5.67;;
21192;SDS011;10754;51.106;7.164;2023-12-04T12:21:32;5.90;;;5.40;;
21192;SDS011;10754;51.106;7.164;2023-12-04T12:23:57;6.13;;;5.53;;
21192;SDS011;10754;51.106;7.164;2023-12-04T12:26:23;6.23;;;4.93;;
21192;SDS011;10754;51.106;7.164;2023-12-04T12:28:48;5.97;;;5.37;;
21192;SDS011;10754;51.106;7.164;2023-12-04T12:31:14;5.50;;;5.00;;
21192;SDS011;10754;51.106;7.164;2023-12-04T12:33:40;7.23;;;5.10;;
21192;SDS011;10754;51.106;7.164;2023-12-04T12:36:06;5.80;;;5.20;;
21192;SDS011;10754;51.106;7.164;2023-12-04T12:38:32;5.87;;;4.87;;
21192;SDS011;10754;51.106;7.164;2023-12-04T12:41:05;6.07;;;5.50;;
21192;SDS011;10754;51.106;7.164;2023-12-04T12:43:32;5.43;;;4.93;;
21192;SDS011;10754;51.106;7.164;2023-12-04T12:45:58;5.53;;;5.00;;
21192;SDS011;10754;51.106;7.164;2023-12-04T12:48:24;5.33;;;4.53;;
21192;SDS011;10754;51.106;7.164;2023-12-04T12:50:52;6.17;;;5.10;;
21192;SDS011;10754;51.106;7.164;2023-12-04T12:53:19;5.70;;;5.10;;
21192;SDS011;10754;51.106;7.164;2023-12-04T12:55:45;6.13;;;5.53;;
21192;SDS011;10754;51.106;7.164;2023-12-04T12:58:12;5.37;;;4.63;;
21192;SDS011;10754;51.106;7.164;2023-12-04T13:00:39;5.20;;;4.70;;
21192;SDS011;10754;51.106;7.164;2023-12-04T13:03:13;5.17;;;4.67;;
21192;SDS011;10754;51.106;7.164;2023-12-04T13:05:39;5.23;;;4.73;;
21192;SDS011;10754;51.106;7.164;2023-12-04T13:08:05;5.33;;;4.83;;
21192;SDS011;10754;51.106;7.164;2023-12-04T13:10:30;5.50;;;4.87;;
21192;SDS011;10754;51.106;7.164;2023-12-04T13:12:56;5.07;;;4.57;;
21192;SDS011;10754;51.106;7.164;2023-12-04T13:15:22;5.60;;;4.57;;
21192;SDS011;10754;51.106;7.164;2023-12-04T13:17:48;4.97;;;4.37;;
21192;SDS011;10754;51.106;7.164;2023-12-04T13:20:13;5.07;;;4.57;;
21192;SDS011;10754;51.106;7.164;2023-12-04T13:22:41;4.97;;;4.03;;
21192;SDS011;10754;51.106;7.164;2023-12-04T13:25:06;4.63;;;4.07;;
21192;SDS011;10754;51.106;7.164;2023-12-04T13:27:34;5.03;;;4.63;;
21192;SDS011;10754;51.106;7.164;2023-12-04T13:30:03;5.50;;;4.60;;
21192;SDS011;10754;51.106;7.164;2023-12-04T13:32:38;4.33;;;3.93;;
21192;SDS011;10754;51.106;7.164;2023-12-04T13:35:04;5.70;;;4.53;;
21192;SDS011;10754;51.106;7.164;2023-12-04T13:37:30;4.90;;;4.40;;
21192;SDS011;10754;51.106;7.164;2023-12-04T13:39:57;5.13;;;4.53;;
21192;SDS011;10754;51.106;7.164;2023-12-04T13:42:26;5.00;;;4.43;;
21192;SDS011;10754;51.106;7.164;2023-12-04T13:45:10;5.00;;;4.50;;
21192;SDS011;10754;51.106;7.164;2023-12-04T13:47:37;4.07;;;3.67;;
21192;SDS011;10754;51.106;7.164;2023-12-04T13:50:03;4.83;;;4.33;;
21192;SDS011;10754;51.106;7.164;2023-12-04T13:52:34;5.30;;;4.87;;
21192;SDS011;10754;51.106;7.164;2023-12-04T13:55:00;5.47;;;4.17;;
21192;SDS011;10754;51.106;7.164;2023-12-04T13:57:27;4.80;;;4.23;;
21192;SDS011;10754;51.106;7.164;2023-12-04T13:59:53;4.23;;;3.80;;
21192;SDS011;10754;51.106;7.164;2023-12-04T14:02:21;4.20;;;3.80;;
21192;SDS011;10754;51.106;7.164;2023-12-04T14:04:46;4.63;;;4.10;;
21192;SDS011;10754;51.106;7.164;2023-12-04T14:07:13;4.53;;;4.13;;
21192;SDS011;10754;51.106;7.164;2023-12-04T14:09:39;4.20;;;3.80;;
21192;SDS011;10754;51.106;7.164;2023-12-04T14:12:05;5.40;;;3.90;;
21192;SDS011;10754;51.106;7.164;2023-12-04T14:14:31;4.93;;;4.27;;
21192;SDS011;10754;51.106;7.164;2023-12-04T14:16:58;5.23;;;4.73;;
21192;SDS011;10754;51.106;7.164;2023-12-04T14:19:24;4.03;;;3.63;;
21192;SDS011;10754;51.106;7.164;2023-12-04T14:21:49;5.17;;;4.60;;
21192;SDS011;10754;51.106;7.164;2023-12-04T14:24:15;4.40;;;4.00;;
21192;SDS011;10754;51.106;7.164;2023-12-04T14:26:40;4.70;;;4.30;;
21192;SDS011;10754;51.106;7.164;2023-12-04T14:29:06;5.00;;;4.50;;
21192;SDS011;10754;51.106;7.164;2023-12-04T14:31:33;4.43;;;3.80;;
21192;SDS011;10754;51.106;7.164;2023-12-04T14:33:59;4.70;;;4.30;;
21192;SDS011;10754;51.106;7.164;2023-12-04T14:36:25;4.60;;;4.20;;
21192;SDS011;10754;51.106;7.164;2023-12-04T14:38:52;4.00;;;3.60;;
21192;SDS011;10754;51.106;7.164;2023-12-04T14:41:18;4.10;;;3.70;;
21192;SDS011;10754;51.106;7.164;2023-12-04T14:43:43;4.80;;;4.27;;
21192;SDS011;10754;51.106;7.164;2023-12-04T14:46:09;4.37;;;3.97;;